createdAt,value
2023-05-15T00:01:55.978Z,73.50
2023-05-15T00:04:22.408Z,73.93
2023-05-15T00:06:48.909Z,74.50
2023-05-15T00:09:15.320Z,75.08
2023-05-15T00:11:41.740Z,75.16
2023-05-15T00:14:08.155Z,74.20
2023-05-15T00:16:34.719Z,74.41
2023-05-15T00:19:01.236Z,75.01
2023-05-15T00:21:27.664Z,74.88
2023-05-15T00:23:54.127Z,74.86
2023-05-15T00:26:20.818Z,75.71
2023-05-15T00:28:47.203Z,74.89
2023-05-15T00:31:14.804Z,75.09
2023-05-15T00:33:41.332Z,75.27
2023-05-15T00:36:09.611Z,75.29
2023-05-15T00:38:36.055Z,75.38
2023-05-15T00:41:04.613Z,76.12
2023-05-15T00:43:31.517Z,75.44
2023-05-15T00:45:59.006Z,75.70
2023-05-15T00:48:27.609Z,75.72
2023-05-15T00:50:55.454Z,75.00
2023-05-15T00:53:24.016Z,75.59
2023-05-15T00:55:51.971Z,75.27
2023-05-15T00:58:21.258Z,76.73
2023-05-15T01:00:49.633Z,76.16
2023-05-15T01:03:17.757Z,76.00
2023-05-15T01:05:45.048Z,76.67
2023-05-15T01:08:27.561Z,78.40
2023-05-15T01:10:54.255Z,77.89
2023-05-15T01:13:22.341Z,77.64
2023-05-15T01:15:49.332Z,78.24
2023-05-15T01:18:16.986Z,76.03
2023-05-15T01:20:49.146Z,76.78
2023-05-15T01:23:27.980Z,76.82
2023-05-15T01:26:25.955Z,76.51
2023-05-15T01:29:01.193Z,76.46
2023-05-15T01:31:32.569Z,76.73
2023-05-15T01:34:03.914Z,76.20
2023-05-15T01:36:56.409Z,76.43
2023-05-15T01:39:27.395Z,77.28
2023-05-15T01:42:08.331Z,77.03
2023-05-15T01:44:38.102Z,76.27
2023-05-15T01:47:13.558Z,77.90
2023-05-15T01:49:43.078Z,76.84
2023-05-15T01:52:30.866Z,77.43
2023-05-15T01:54:58.482Z,77.33
2023-05-15T01:57:26.764Z,77.29
2023-05-15T01:59:55.154Z,76.91
2023-05-15T02:02:23.768Z,77.22
2023-05-15T02:04:52.231Z,77.64
2023-05-15T02:07:20.723Z,77.36
2023-05-15T02:09:48.050Z,76.49
2023-05-15T02:12:15.482Z,76.65
2023-05-15T02:14:42.875Z,76.89
2023-05-15T02:17:09.438Z,76.78
2023-05-15T02:19:35.840Z,77.18
2023-05-15T02:22:02.587Z,77.46
2023-05-15T02:24:29.013Z,78.25
2023-05-15T02:27:05.294Z,78.16
2023-05-15T02:29:37.404Z,78.64
2023-05-15T02:32:13.058Z,77.87
2023-05-15T02:34:49.535Z,76.92
2023-05-15T02:37:24.597Z,76.06
2023-05-15T02:39:54.541Z,78.20
2023-05-15T02:42:22.172Z,78.07
2023-05-15T02:44:48.897Z,78.23
2023-05-15T02:47:16.532Z,78.06
2023-05-15T02:49:43.091Z,78.44
2023-05-15T02:52:09.611Z,78.88
2023-05-15T02:54:36.051Z,79.61
2023-05-15T02:57:02.548Z,79.31
2023-05-15T02:59:29.012Z,79.23
2023-05-15T03:01:55.547Z,79.21
2023-05-15T03:04:22.034Z,79.53
2023-05-15T03:06:48.535Z,80.25
2023-05-15T03:09:14.978Z,79.95
2023-05-15T03:11:41.412Z,79.87
2023-05-15T03:14:07.918Z,80.76
2023-05-15T03:16:34.399Z,81.20
2023-05-15T03:19:00.913Z,80.54
2023-05-15T03:21:27.335Z,80.56
2023-05-15T03:23:53.871Z,80.07
2023-05-15T03:26:20.461Z,80.23
2023-05-15T03:28:46.893Z,79.71
2023-05-15T03:31:14.281Z,80.10
2023-05-15T03:33:40.848Z,80.86
2023-05-15T03:36:07.825Z,81.68
2023-05-15T03:38:34.221Z,82.15
2023-05-15T03:41:00.644Z,82.00
2023-05-15T03:43:27.099Z,83.79
2023-05-15T03:45:53.572Z,83.93
2023-05-15T03:48:19.985Z,83.25
2023-05-15T03:50:46.512Z,84.09
2023-05-15T03:53:12.946Z,83.43
2023-05-15T03:55:39.382Z,84.90
2023-05-15T03:58:05.813Z,83.52
2023-05-15T04:00:33.611Z,83.71
2023-05-15T04:03:00.104Z,83.51
2023-05-15T04:05:26.924Z,82.34
2023-05-15T04:07:53.621Z,82.93
2023-05-15T04:10:20.088Z,82.77
2023-05-15T04:12:46.569Z,81.99
2023-05-15T04:15:17.283Z,83.67
2023-05-15T04:17:48.137Z,84.41
2023-05-15T04:20:16.166Z,85.03
2023-05-15T04:22:43.559Z,84.17
2023-05-15T04:25:11.433Z,84.64
2023-05-15T04:27:38.541Z,84.13
2023-05-15T04:30:05.968Z,83.37
2023-05-15T04:32:33.794Z,84.06
2023-05-15T04:35:01.239Z,84.02
2023-05-15T04:37:28.388Z,84.06
2023-05-15T04:39:55.219Z,83.43
2023-05-15T04:42:21.630Z,85.36
2023-05-15T04:44:48.027Z,85.74
2023-05-15T04:47:14.433Z,86.41
2023-05-15T04:49:41.902Z,87.04
2023-05-15T04:52:08.332Z,85.82
2023-05-15T04:54:34.712Z,85.70
2023-05-15T04:57:01.326Z,85.50
2023-05-15T04:59:28.698Z,83.68
2023-05-15T05:01:55.217Z,83.85
2023-05-15T05:04:21.654Z,84.15
2023-05-15T05:06:48.064Z,82.82
2023-05-15T05:09:14.473Z,86.18
2023-05-15T05:11:43.904Z,86.42
2023-05-15T05:14:11.312Z,84.50
2023-05-15T05:16:37.804Z,84.02
2023-05-15T05:19:04.558Z,82.80
2023-05-15T05:21:31.294Z,82.28
2023-05-15T05:23:57.737Z,81.06
2023-05-15T05:26:24.789Z,81.92
2023-05-15T05:28:51.217Z,82.51
2023-05-15T05:31:17.773Z,82.08
2023-05-15T05:33:44.240Z,81.24
2023-05-15T05:36:10.679Z,80.41
2023-05-15T05:38:38.177Z,80.69
2023-05-15T05:41:04.594Z,79.46
2023-05-15T05:43:31.350Z,77.19
2023-05-15T05:45:57.828Z,76.16
2023-05-15T05:48:24.241Z,75.79
2023-05-15T05:50:51.404Z,74.23
2023-05-15T05:53:17.811Z,73.77
2023-05-15T05:55:44.447Z,73.24
2023-05-15T05:58:24.027Z,71.88
2023-05-15T06:00:51.254Z,71.29
2023-05-15T06:03:17.799Z,70.02
2023-05-15T06:05:44.416Z,69.42
2023-05-15T06:08:11.052Z,68.17
2023-05-15T06:10:37.561Z,67.32
2023-05-15T06:13:03.969Z,66.82
2023-05-15T06:15:30.634Z,66.05
2023-05-15T06:17:57.064Z,65.86
2023-05-15T06:20:23.707Z,66.04
2023-05-15T06:22:50.249Z,64.58
2023-05-15T06:25:16.731Z,64.53
2023-05-15T06:27:43.196Z,64.17
2023-05-15T06:30:10.277Z,63.64
2023-05-15T06:32:36.735Z,62.56
2023-05-15T06:35:03.351Z,61.75
2023-05-15T06:37:30.268Z,60.67
2023-05-15T06:39:56.719Z,59.77
2023-05-15T06:42:23.593Z,58.85
2023-05-15T06:44:50.046Z,57.60
2023-05-15T06:47:16.615Z,56.61
2023-05-15T06:49:43.029Z,56.08
2023-05-15T06:52:09.450Z,55.32
2023-05-15T06:54:35.999Z,53.81
2023-05-15T06:57:02.436Z,52.85
2023-05-15T06:59:28.906Z,51.59
2023-05-15T07:01:56.105Z,52.12
2023-05-15T07:04:22.695Z,52.42
2023-05-15T07:06:49.148Z,51.20
2023-05-15T07:09:15.564Z,51.11
2023-05-15T07:11:42.230Z,49.10
2023-05-15T07:14:08.673Z,50.40
2023-05-15T07:16:35.112Z,50.97
2023-05-15T07:19:01.762Z,49.66
2023-05-15T07:21:28.297Z,49.74
2023-05-15T07:23:54.729Z,49.58
2023-05-15T07:26:32.417Z,50.29
2023-05-15T07:29:04.090Z,48.96
2023-05-15T07:31:33.785Z,49.20
2023-05-15T07:34:00.320Z,49.36
2023-05-15T07:36:26.764Z,48.83
2023-05-15T07:38:53.185Z,49.35
2023-05-15T07:41:19.597Z,49.37
2023-05-15T07:43:46.273Z,48.89
2023-05-15T07:46:12.782Z,49.30
2023-05-15T07:48:39.257Z,49.27
2023-05-15T07:51:06.285Z,49.62
2023-05-15T07:53:33.265Z,47.74
2023-05-15T07:55:59.859Z,47.90
2023-05-15T07:58:26.281Z,48.52
2023-05-15T08:00:52.865Z,47.78
2023-05-15T08:03:19.547Z,47.48
2023-05-15T08:05:47.184Z,47.18
2023-05-15T08:08:13.626Z,47.24
2023-05-15T08:10:40.102Z,46.81
2023-05-15T08:13:07.099Z,46.91
2023-05-15T08:15:33.663Z,46.69
2023-05-15T08:18:00.249Z,46.53
2023-05-15T08:20:26.737Z,46.74
2023-05-15T08:22:53.145Z,45.66
2023-05-15T08:25:19.572Z,45.66
2023-05-15T08:27:45.980Z,45.13
2023-05-15T08:30:13.129Z,44.26
2023-05-15T08:32:39.606Z,44.20
2023-05-15T08:35:06.606Z,44.39
2023-05-15T08:37:33.704Z,44.07
2023-05-15T08:40:00.215Z,44.90
2023-05-15T08:42:37.727Z,44.32
2023-05-15T08:45:05.380Z,45.09
2023-05-15T08:47:35.470Z,44.48
2023-05-15T08:50:14.275Z,44.22
2023-05-15T08:52:42.768Z,44.87
2023-05-15T08:55:10.832Z,44.84
2023-05-15T08:57:37.850Z,46.29
2023-05-15T09:00:09.258Z,46.19
2023-05-15T09:02:37.453Z,46.25
2023-05-15T09:05:06.161Z,47.01
2023-05-15T09:07:33.150Z,47.30
2023-05-15T09:10:01.200Z,47.60
2023-05-15T09:12:28.039Z,47.94
2023-05-15T09:15:17.223Z,47.10
2023-05-15T09:17:45.130Z,47.56
2023-05-15T09:20:32.206Z,47.94
2023-05-15T09:23:00.208Z,48.45
2023-05-15T09:25:34.545Z,48.09
2023-05-15T09:28:01.113Z,48.13
2023-05-15T09:30:28.044Z,48.53
2023-05-15T09:32:56.256Z,48.91
2023-05-15T09:35:36.598Z,48.07
2023-05-15T09:38:07.836Z,48.92
2023-05-15T09:40:34.288Z,49.06
2023-05-15T09:43:00.749Z,49.62
2023-05-15T09:45:29.801Z,49.09
2023-05-15T09:47:59.355Z,49.10
2023-05-15T09:50:35.411Z,48.45
2023-05-15T09:53:02.239Z,48.41
2023-05-15T09:55:31.919Z,49.33
2023-05-15T09:58:06.330Z,48.87
2023-05-15T10:00:34.141Z,48.53
2023-05-15T10:03:05.091Z,49.13
2023-05-15T10:05:42.589Z,48.48
2023-05-15T10:08:09.802Z,48.59
2023-05-15T10:10:36.236Z,48.38
2023-05-15T10:13:05.464Z,48.15
2023-05-15T10:15:32.966Z,48.41
2023-05-15T10:18:00.412Z,47.88
2023-05-15T10:20:27.357Z,48.42
2023-05-15T10:22:56.500Z,48.99
2023-05-15T10:25:50.447Z,48.99
2023-05-15T10:28:17.239Z,48.99
2023-05-15T10:30:44.025Z,48.52
2023-05-15T10:33:11.432Z,48.67
2023-05-15T10:35:39.851Z,47.84
2023-05-15T10:38:07.379Z,48.07
2023-05-15T10:40:37.370Z,48.14
2023-05-15T10:43:04.852Z,47.79
2023-05-15T10:45:31.882Z,48.31
2023-05-15T10:47:59.358Z,47.08
2023-05-15T10:50:27.337Z,47.62
2023-05-15T10:52:55.877Z,47.44
2023-05-15T10:55:23.081Z,46.98
2023-05-15T10:57:49.745Z,45.85
2023-05-15T11:00:22.174Z,45.63
2023-05-15T11:02:49.756Z,46.49
2023-05-15T11:05:16.286Z,45.77
2023-05-15T11:07:42.758Z,46.16
2023-05-15T11:10:27.731Z,45.14
2023-05-15T11:12:58.425Z,45.11
2023-05-15T11:15:25.073Z,46.08
2023-05-15T11:18:06.067Z,44.76
2023-05-15T11:20:43.044Z,43.68
2023-05-15T11:23:09.649Z,43.97
2023-05-15T11:25:37.076Z,44.08
2023-05-15T11:28:04.693Z,44.69
2023-05-15T11:30:36.290Z,45.09
2023-05-15T11:33:08.664Z,45.98
2023-05-15T11:35:45.913Z,46.39
2023-05-15T11:38:17.467Z,47.01
2023-05-15T11:40:49.131Z,46.94
2023-05-15T11:43:28.099Z,46.89
2023-05-15T11:45:56.326Z,47.24
2023-05-15T11:48:24.364Z,48.02
2023-05-15T11:50:53.665Z,47.20
2023-05-15T11:53:23.005Z,46.64
2023-05-15T11:55:52.140Z,46.22
2023-05-15T11:58:21.142Z,45.23
2023-05-15T12:00:49.190Z,44.61
2023-05-15T12:03:23.915Z,43.58
2023-05-15T12:05:58.953Z,43.76
2023-05-15T12:08:27.210Z,43.36
2023-05-15T12:10:53.634Z,43.15
2023-05-15T12:13:21.236Z,43.24
2023-05-15T12:15:47.643Z,43.77
2023-05-15T12:18:14.352Z,43.60
2023-05-15T12:20:46.674Z,43.01
2023-05-15T12:23:17.160Z,43.00
2023-05-15T12:25:46.571Z,42.08
2023-05-15T12:28:13.820Z,41.25
2023-05-15T12:30:42.129Z,41.94
2023-05-15T12:33:10.256Z,41.24
2023-05-15T12:35:41.241Z,40.50
2023-05-15T12:38:07.667Z,40.54
2023-05-15T12:40:34.923Z,40.14
2023-05-15T12:43:06.223Z,39.84
2023-05-15T12:45:35.113Z,38.93
2023-05-15T12:48:01.777Z,39.48
2023-05-15T12:50:30.678Z,39.64
2023-05-15T12:52:58.351Z,40.41
2023-05-15T12:55:32.626Z,39.61
2023-05-15T12:58:02.241Z,38.01
2023-05-15T13:00:29.528Z,37.63
2023-05-15T13:02:57.261Z,37.56
2023-05-15T13:05:28.176Z,36.69
2023-05-15T13:07:55.222Z,37.33
2023-05-15T13:10:23.529Z,36.47
2023-05-15T13:12:51.986Z,37.81
2023-05-15T13:15:44.965Z,37.98
2023-05-15T13:18:13.970Z,39.25
2023-05-15T13:20:43.980Z,40.52
2023-05-15T13:23:11.778Z,40.60
2023-05-15T13:25:38.263Z,40.58
2023-05-15T13:28:06.877Z,40.76
2023-05-15T13:30:34.534Z,41.69
2023-05-15T13:33:01.736Z,41.61
2023-05-15T13:35:28.690Z,41.50
2023-05-15T13:37:55.367Z,42.02
2023-05-15T13:40:21.835Z,42.34
2023-05-15T13:42:48.273Z,41.92
2023-05-15T13:45:16.361Z,42.24
2023-05-15T13:47:43.462Z,41.19
2023-05-15T13:50:12.453Z,41.02
2023-05-15T13:52:39.684Z,41.38
2023-05-15T13:55:06.922Z,41.74
2023-05-15T13:57:33.327Z,41.15
2023-05-15T13:59:59.726Z,40.42
2023-05-15T14:02:26.986Z,40.15
2023-05-15T14:04:53.826Z,39.96
2023-05-15T14:07:23.878Z,40.70
2023-05-15T14:09:51.477Z,48.50
2023-05-15T14:12:18.261Z,50.78
2023-05-15T14:14:47.899Z,53.53
2023-05-15T14:17:15.083Z,55.73
2023-05-15T14:19:41.733Z,56.71
2023-05-15T14:22:08.343Z,56.67
2023-05-15T14:24:34.740Z,56.42
2023-05-15T14:27:01.595Z,56.00
2023-05-15T14:29:27.988Z,56.72
2023-05-15T14:31:54.480Z,56.07
2023-05-15T14:34:22.489Z,57.08
2023-05-15T14:36:49.628Z,57.64
2023-05-15T14:39:16.710Z,58.30
2023-05-15T14:41:44.070Z,59.54
2023-05-15T14:44:10.596Z,59.50
2023-05-15T14:46:38.021Z,59.64
2023-05-15T14:49:05.086Z,59.11
2023-05-15T14:51:32.210Z,58.79
2023-05-15T14:53:58.859Z,59.37
2023-05-15T14:56:25.907Z,57.59
2023-05-15T14:58:53.607Z,58.71
2023-05-15T15:01:20.699Z,57.45
2023-05-15T15:03:48.002Z,58.21
2023-05-15T15:06:14.695Z,58.17
2023-05-15T15:08:41.234Z,57.96
2023-05-15T15:11:07.846Z,58.36
2023-05-15T15:13:34.432Z,58.35
2023-05-15T15:16:00.904Z,58.59
2023-05-15T15:18:27.394Z,58.04
2023-05-15T15:20:53.985Z,58.58
2023-05-15T15:23:20.556Z,59.16
2023-05-15T15:25:47.154Z,58.49
2023-05-15T15:28:13.549Z,58.78
2023-05-15T15:30:40.117Z,59.13
2023-05-15T15:33:06.629Z,59.32
2023-05-15T15:35:33.226Z,59.12
2023-05-15T15:37:59.838Z,59.39
2023-05-15T15:40:26.432Z,58.78
2023-05-15T15:42:54.157Z,57.22
2023-05-15T15:45:20.812Z,57.22
2023-05-15T15:47:47.283Z,57.49
2023-05-15T15:50:13.710Z,57.79
2023-05-15T15:52:40.240Z,56.16
2023-05-15T15:55:07.312Z,56.15
2023-05-15T15:57:33.737Z,55.91
2023-05-15T16:00:00.225Z,56.01
2023-05-15T16:02:26.698Z,56.64
2023-05-15T16:04:53.124Z,57.05
2023-05-15T16:07:19.606Z,56.53
2023-05-15T16:09:49.325Z,56.10
2023-05-15T16:12:20.220Z,57.39
2023-05-15T16:14:46.610Z,57.45
2023-05-15T16:17:13.038Z,57.11
2023-05-15T16:19:39.456Z,57.26
2023-05-15T16:22:05.865Z,58.20
2023-05-15T16:24:32.607Z,57.81
2023-05-15T16:26:59.128Z,57.48
2023-05-15T16:29:25.987Z,57.85
2023-05-15T16:31:52.940Z,58.69
2023-05-15T16:34:19.437Z,59.76
2023-05-15T16:36:45.856Z,61.51
2023-05-15T16:39:12.252Z,64.85
2023-05-15T16:41:38.703Z,70.73
2023-05-15T16:44:09.425Z,73.47
2023-05-15T16:46:35.969Z,75.73
2023-05-15T16:49:02.386Z,76.20
2023-05-15T16:51:28.815Z,76.96
2023-05-15T16:53:56.426Z,80.49
2023-05-15T16:56:22.813Z,82.92
2023-05-15T16:58:50.594Z,84.57
2023-05-15T17:01:17.065Z,83.59
2023-05-15T17:03:44.093Z,84.29
2023-05-15T17:06:10.696Z,85.39
2023-05-15T17:08:37.136Z,88.30
2023-05-15T17:11:04.127Z,87.70
2023-05-15T17:13:30.528Z,88.23
2023-05-15T17:15:56.959Z,86.85
2023-05-15T17:18:23.598Z,88.01
2023-05-15T17:20:50.020Z,87.45
2023-05-15T17:23:16.440Z,86.94
2023-05-15T17:25:42.841Z,85.32
2023-05-15T17:28:09.224Z,85.23
2023-05-15T17:30:35.735Z,85.20
2023-05-15T17:33:02.253Z,83.64
2023-05-15T17:35:30.644Z,84.48
2023-05-15T17:37:59.101Z,86.43
2023-05-15T17:40:25.567Z,88.08
2023-05-15T17:42:51.968Z,87.41
2023-05-15T17:45:19.449Z,88.00
2023-05-15T17:47:45.849Z,88.79
2023-05-15T17:50:12.326Z,88.98
2023-05-15T17:52:38.749Z,88.51
2023-05-15T17:55:06.024Z,87.66
2023-05-15T17:57:32.538Z,88.38
2023-05-15T17:59:58.962Z,86.32
2023-05-15T18:02:25.683Z,85.99
2023-05-15T18:04:52.184Z,85.73
2023-05-15T18:07:18.617Z,85.14
2023-05-15T18:09:45.029Z,84.44
2023-05-15T18:12:11.424Z,86.15
2023-05-15T18:14:39.247Z,87.27
2023-05-15T18:17:06.888Z,86.62
2023-05-15T18:19:33.284Z,86.37
2023-05-15T18:22:02.974Z,87.02
2023-05-15T18:24:29.421Z,87.49
2023-05-15T18:26:55.839Z,86.43
2023-05-15T18:29:22.246Z,86.65
2023-05-15T18:31:48.745Z,87.01
2023-05-15T18:34:15.249Z,88.10
2023-05-15T18:36:41.664Z,89.31
2023-05-15T18:39:08.132Z,87.50
2023-05-15T18:41:34.534Z,89.72
2023-05-15T18:44:01.050Z,89.58
2023-05-15T18:46:28.393Z,87.47
2023-05-15T18:48:54.984Z,89.96
2023-05-15T18:51:21.408Z,89.87
2023-05-15T18:53:47.807Z,88.34
2023-05-15T18:56:14.218Z,89.91
2023-05-15T18:58:40.654Z,89.95
2023-05-15T19:01:07.124Z,90.19
2023-05-15T19:03:35.906Z,91.38
2023-05-15T19:06:02.342Z,89.79
2023-05-15T19:08:28.767Z,89.33
2023-05-15T19:10:55.283Z,90.84
2023-05-15T19:13:21.893Z,90.53
2023-05-15T19:15:52.293Z,91.03
2023-05-15T19:18:18.944Z,92.86
2023-05-15T19:20:49.603Z,94.61
2023-05-15T19:23:16.028Z,94.28
2023-05-15T19:25:42.599Z,94.86
2023-05-15T19:28:09.045Z,94.42
2023-05-15T19:30:35.554Z,94.84
2023-05-15T19:33:02.020Z,96.39
2023-05-15T19:35:28.473Z,95.21
2023-05-15T19:37:54.879Z,97.74
2023-05-15T19:40:21.262Z,97.42
2023-05-15T19:42:47.900Z,99.24
2023-05-15T19:45:14.342Z,97.76
2023-05-15T19:47:42.454Z,98.58
2023-05-15T19:50:09.949Z,99.78
2023-05-15T19:52:36.401Z,97.62
2023-05-15T19:55:02.807Z,96.90
2023-05-15T19:57:29.210Z,95.91
2023-05-15T19:59:55.638Z,94.99
2023-05-15T20:02:22.129Z,95.57
2023-05-15T20:04:48.586Z,93.78
2023-05-15T20:07:14.982Z,96.16
2023-05-15T20:09:41.376Z,94.94
2023-05-15T20:12:07.811Z,95.96
2023-05-15T20:14:34.263Z,95.27
2023-05-15T20:17:00.689Z,94.95
2023-05-15T20:19:27.850Z,93.84
2023-05-15T20:21:54.311Z,93.39
2023-05-15T20:24:25.537Z,94.33
2023-05-15T20:26:51.986Z,94.56
2023-05-15T20:29:18.622Z,94.45
2023-05-15T20:31:45.245Z,94.16
2023-05-15T20:34:15.113Z,95.74
2023-05-15T20:36:41.555Z,95.74
2023-05-15T20:39:08.537Z,96.21
2023-05-15T20:41:35.474Z,96.11
2023-05-15T20:44:01.934Z,96.02
2023-05-15T20:46:30.114Z,94.72
2023-05-15T20:48:57.527Z,95.30
2023-05-15T20:51:24.026Z,95.29
2023-05-15T20:53:50.868Z,94.04
2023-05-15T20:56:17.276Z,95.71
2023-05-15T20:58:44.145Z,95.69
2023-05-15T21:01:10.691Z,95.04
2023-05-15T21:03:37.173Z,94.43
2023-05-15T21:06:03.775Z,94.13
2023-05-15T21:08:30.261Z,93.16
2023-05-15T21:10:56.717Z,93.32
2023-05-15T21:13:23.104Z,93.62
2023-05-15T21:15:50.279Z,93.16
2023-05-15T21:18:16.784Z,92.19
2023-05-15T21:20:43.180Z,93.53
2023-05-15T21:23:09.636Z,93.67
2023-05-15T21:25:36.987Z,94.13
2023-05-15T21:28:04.448Z,94.87
2023-05-15T21:30:31.569Z,94.05
2023-05-15T21:32:58.028Z,95.56
2023-05-15T21:35:25.403Z,93.10
2023-05-15T21:37:51.822Z,93.60
2023-05-15T21:40:18.329Z,94.65
2023-05-15T21:42:44.755Z,93.27
2023-05-15T21:45:11.152Z,93.67
2023-05-15T21:47:37.596Z,93.58
2023-05-15T21:50:05.769Z,92.72
2023-05-15T21:52:32.183Z,94.33
2023-05-15T21:54:58.574Z,93.82
2023-05-15T21:57:24.980Z,94.32
2023-05-15T21:59:51.373Z,92.71
2023-05-15T22:02:17.792Z,93.99
2023-05-15T22:04:44.251Z,93.49
2023-05-15T22:07:11.186Z,93.55
2023-05-15T22:09:37.617Z,92.73
2023-05-15T22:12:04.620Z,91.64
2023-05-15T22:14:31.085Z,93.32
2023-05-15T22:16:57.544Z,92.64
2023-05-15T22:19:32.695Z,91.46
2023-05-15T22:22:01.270Z,92.54
2023-05-15T22:24:27.668Z,92.94
2023-05-15T22:26:54.193Z,93.32
2023-05-15T22:29:20.653Z,93.32
2023-05-15T22:31:47.351Z,93.65
2023-05-15T22:34:13.863Z,93.35
2023-05-15T22:36:40.932Z,94.17
2023-05-15T22:39:07.960Z,93.92
2023-05-15T22:41:34.393Z,94.39
2023-05-15T22:44:01.754Z,94.89
2023-05-15T22:46:28.283Z,95.61
2023-05-15T22:48:54.979Z,95.61
2023-05-15T22:51:22.195Z,94.18
2023-05-15T22:53:48.670Z,95.90
2023-05-15T22:56:15.064Z,96.79
2023-05-15T22:58:41.465Z,95.60
2023-05-15T23:01:08.381Z,95.58
2023-05-15T23:03:34.921Z,94.69
2023-05-15T23:06:01.392Z,94.73
2023-05-15T23:08:27.786Z,93.53
2023-05-15T23:10:56.022Z,94.09
2023-05-15T23:13:22.454Z,95.74
2023-05-15T23:15:48.966Z,94.20
2023-05-15T23:18:16.104Z,93.12
2023-05-15T23:20:42.537Z,94.42
2023-05-15T23:23:08.929Z,92.45
2023-05-15T23:25:35.474Z,94.00
2023-05-15T23:28:01.868Z,93.06
2023-05-15T23:30:28.396Z,93.11
2023-05-15T23:32:56.593Z,93.36
2023-05-15T23:35:23.024Z,94.72
2023-05-15T23:37:49.403Z,94.83
2023-05-15T23:40:15.960Z,95.39
2023-05-15T23:42:42.367Z,95.19
2023-05-15T23:45:09.608Z,93.82
2023-05-15T23:47:36.489Z,94.01
2023-05-15T23:50:03.633Z,93.51
2023-05-15T23:52:30.090Z,94.73
2023-05-15T23:54:56.485Z,94.63
2023-05-15T23:57:22.920Z,95.09
2023-05-15T23:59:49.360Z,96.95
